Wetterdaten: Woche 13.05.02 - 19.05.02 (KW20)
Datum Zeit Temperatur Luftfeuchte Luftdruck Regenmenge Wind Richtung Taupunkt Windchill
13.05.2002 00:00 10.9 C 100 % 1017.0 hPa 9.0 l/m 0.9 km/h (0 Bft) O 10.9 C 10.9 C
13.05.2002 01:00 10.7 C 100 % 1017.0 hPa 4.5 l/m 0.3 km/h (0 Bft) N 10.7 C 10.7 C
13.05.2002 02:00 10.7 C 100 % 1017.1 hPa 0.0 l/m 0.0 km/h (0 Bft) N 10.7 C 10.7 C
13.05.2002 03:00 10.7 C 100 % 1017.9 hPa 0.0 l/m 0.0 km/h (0 Bft) N 10.7 C 10.7 C
13.05.2002 04:00 10.5 C 100 % 1017.3 hPa 0.0 l/m 0.8 km/h (0 Bft) SO 10.5 C 10.5 C
13.05.2002 05:00 10.2 C 100 % 1018.0 hPa 0.0 l/m 0.5 km/h (0 Bft) SO 10.2 C 10.2 C
13.05.2002 06:00 10.1 C 100 % 1017.1 hPa 0.3 l/m 2.9 km/h (1 Bft) SO 10.1 C 9.9 C
13.05.2002 07:00 10.6 C 100 % 1017.3 hPa 0.0 l/m 0.0 km/h (0 Bft) N 10.6 C 10.6 C
13.05.2002 08:00 11.3 C 96 % 1017.2 hPa 0.0 l/m 0.1 km/h (0 Bft) NW 10.7 C 11.3 C
13.05.2002 09:00 12.2 C 92 % 1017.0 hPa 0.0 l/m 0.5 km/h (0 Bft) O-SO 10.9 C 12.2 C
13.05.2002 10:00 13.3 C 89 % 1017.0 hPa 0.0 l/m 0.9 km/h (0 Bft) O-SO 11.5 C 13.3 C
13.05.2002 11:00 15.1 C 81 % 1016.6 hPa 0.0 l/m 14.8 km/h (3 Bft) O-SO 12.0 C 15.1 C
13.05.2002 12:00 15.6 C 77 % 1015.9 hPa 0.0 l/m 11.1 km/h (2 Bft) O-SO 11.5 C 15.6 C
13.05.2002 13:00 17.7 C 68 % 1015.7 hPa 0.0 l/m 5.6 km/h (1 Bft) O-SO 11.8 C 17.7 C
13.05.2002 14:00 19.3 C 60 % 1014.9 hPa 0.0 l/m 9.2 km/h (2 Bft) O-SO 11.4 C 19.3 C
13.05.2002 15:00 21.1 C 54 % 1014.4 hPa 0.0 l/m 10.1 km/h (2 Bft) O-SO 11.5 C 21.1 C
13.05.2002 16:00 21.5 C 56 % 1013.9 hPa 0.0 l/m 9.1 km/h (2 Bft) O-SO 12.4 C 21.5 C
13.05.2002 17:00 21.4 C 57 % 1013.5 hPa 0.0 l/m 2.5 km/h (1 Bft) NW 12.4 C 21.4 C
13.05.2002 18:00 20.7 C 58 % 1012.8 hPa 0.0 l/m 2.9 km/h (1 Bft) S 12.0 C 20.7 C
13.05.2002 19:00 19.5 C 62 % 1012.8 hPa 0.0 l/m 0.2 km/h (0 Bft) O-SO 11.9 C 19.5 C
13.05.2002 20:00 17.3 C 75 % 1012.8 hPa 0.0 l/m 1.8 km/h (1 Bft) O-SO 12.8 C 17.3 C
13.05.2002 21:00 14.6 C 86 % 1013.7 hPa 0.0 l/m 5.7 km/h (1 Bft) O-SO 12.3 C 14.6 C
13.05.2002 22:00 13.4 C 92 % 1013.9 hPa 0.0 l/m 2.3 km/h (1 Bft) O-SO 12.1 C 13.4 C
13.05.2002 23:00 12.4 C 96 % 1013.9 hPa 0.0 l/m 0.4 km/h (0 Bft) O-SO 11.8 C 12.4 C
14.05.2002 00:00 12.3 C 99 % 1014.5 hPa 0.0 l/m 0.2 km/h (0 Bft) O-SO 12.1 C 12.3 C
14.05.2002 01:00 11.1 C 99 % 1014.9 hPa 0.0 l/m 1.1 km/h (0 Bft) O-SO 11.0 C 11.1 C
14.05.2002 02:00 11.6 C 100 % 1015.8 hPa 0.0 l/m 4.4 km/h (1 Bft) O-SO 11.6 C 11.6 C
14.05.2002 03:00 12.2 C 97 % 1016.9 hPa 0.0 l/m 7.6 km/h (2 Bft) NW 11.7 C 12.2 C
14.05.2002 04:00 13.4 C 88 % 1018.0 hPa 0.0 l/m 20.5 km/h (4 Bft) NW 11.4 C 13.4 C
14.05.2002 05:00 12.4 C 93 % 1018.5 hPa 0.0 l/m 18.4 km/h (3 Bft) NW 11.2 C 12.4 C
14.05.2002 06:00 11.7 C 82 % 1019.4 hPa 0.0 l/m 29.4 km/h (5 Bft) NW 8.7 C 11.7 C
14.05.2002 07:00 11.2 C 75 % 1020.1 hPa 0.0 l/m 28.2 km/h (4 Bft) NW 7.0 C 11.2 C
14.05.2002 08:00 11.5 C 72 % 1021.0 hPa 0.0 l/m 21.1 km/h (4 Bft) NW 6.7 C 11.5 C
14.05.2002 09:00 12.8 C 66 % 1021.1 hPa 0.0 l/m 12.6 km/h (3 Bft) NW 6.5 C 12.8 C
14.05.2002 10:00 13.6 C 62 % 1022.2 hPa 0.0 l/m 14.5 km/h (3 Bft) NW 6.5 C 13.6 C
14.05.2002 11:00 15.3 C 57 % 1022.2 hPa 0.0 l/m 16.6 km/h (3 Bft) NW 6.8 C 15.3 C
14.05.2002 12:00 16.4 C 56 % 1022.2 hPa 0.0 l/m 14.8 km/h (3 Bft) NW 7.5 C 16.4 C
14.05.2002 13:00 17.6 C 53 % 1021.8 hPa 0.0 l/m 19.1 km/h (3 Bft) NW 7.8 C 17.6 C
14.05.2002 14:00 18.8 C 48 % 1021.1 hPa 0.0 l/m 20.3 km/h (4 Bft) NW 7.5 C 18.8 C
14.05.2002 15:00 19.9 C 43 % 1021.1 hPa 0.0 l/m 19.2 km/h (3 Bft) NW 6.8 C 19.9 C
14.05.2002 16:00 20.4 C 42 % 1020.8 hPa 0.0 l/m 25.2 km/h (4 Bft) NW 7.0 C 20.4 C
14.05.2002 17:00 20.1 C 44 % 1020.9 hPa 0.0 l/m 31.6 km/h (5 Bft) NW 7.6 C 20.1 C
14.05.2002 18:00 19.4 C 42 % 1021.1 hPa 0.0 l/m 30.4 km/h (5 Bft) NW 6.0 C 19.4 C
14.05.2002 19:00 18.2 C 44 % 1021.6 hPa 0.0 l/m 23.8 km/h (4 Bft) NW 5.8 C 18.2 C
14.05.2002 20:00 16.4 C 47 % 1022.7 hPa 0.0 l/m 18.3 km/h (3 Bft) NW 5.2 C 16.4 C
14.05.2002 21:00 14.8 C 53 % 1023.6 hPa 0.0 l/m 16.7 km/h (3 Bft) NW 5.2 C 14.8 C
14.05.2002 22:00 13.0 C 60 % 1024.6 hPa 0.0 l/m 7.0 km/h (2 Bft) NW 5.5 C 13.0 C
14.05.2002 23:00 10.3 C 76 % 1025.3 hPa 0.0 l/m 5.2 km/h (1 Bft) O-SO 6.3 C 10.3 C
15.05.2002 00:00 8.8 C 85 % 1026.0 hPa 0.0 l/m 4.7 km/h (1 Bft) O-SO 6.4 C 8.3 C
15.05.2002 01:00 7.6 C 91 % 1026.3 hPa 0.0 l/m 1.3 km/h (1 Bft) O-SO 6.3 C 7.6 C
15.05.2002 02:00 6.7 C 96 % 1027.0 hPa 0.0 l/m 0.0 km/h (0 Bft) N 6.1 C 6.7 C
15.05.2002 03:00 5.9 C 99 % 1027.3 hPa 0.0 l/m 0.0 km/h (0 Bft) O-SO 5.7 C 5.9 C
15.05.2002 04:00 5.4 C 100 % 1027.3 hPa 0.0 l/m 0.5 km/h (0 Bft) O-SO 5.4 C 5.4 C
15.05.2002 05:00 5.1 C 100 % 1027.3 hPa 0.0 l/m 1.5 km/h (1 Bft) O-SO 5.1 C 5.0 C
15.05.2002 06:00 5.3 C 100 % 1027.3 hPa 0.0 l/m 0.0 km/h (0 Bft) N 5.3 C 5.3 C
15.05.2002 07:00 6.7 C 99 % 1028.4 hPa 0.0 l/m 0.0 km/h (0 Bft) N 6.5 C 6.7 C
15.05.2002 08:00 8.9 C 86 % 1027.7 hPa 0.0 l/m 0.2 km/h (0 Bft) W-NW 6.7 C 8.9 C
15.05.2002 09:00 11.7 C 73 % 1027.7 hPa 0.0 l/m 0.2 km/h (0 Bft) W 6.9 C 11.7 C
15.05.2002 10:00 15.0 C 60 % 1027.3 hPa 0.0 l/m 2.6 km/h (1 Bft) W-NW 7.1 C 15.0 C
15.05.2002 11:00 17.3 C 49 % 1027.2 hPa 0.0 l/m 2.8 km/h (1 Bft) W-NW 6.6 C 17.3 C
15.05.2002 12:00 19.1 C 42 % 1026.3 hPa 0.0 l/m 2.8 km/h (1 Bft) W-NW 6.0 C 19.1 C
15.05.2002 13:00 20.7 C 36 % 1026.3 hPa 0.0 l/m 1.0 km/h (0 Bft) N-NW 5.3 C 20.7 C
15.05.2002 14:00 22.2 C 34 % 1025.7 hPa 0.0 l/m 5.9 km/h (2 Bft) O-SO 5.5 C 22.2 C
15.05.2002 15:00 23.2 C 32 % 1025.3 hPa 0.0 l/m 6.8 km/h (2 Bft) NW 5.6 C 23.2 C
15.05.2002 16:00 23.4 C 31 % 1024.6 hPa 0.0 l/m 1.6 km/h (1 Bft) W 5.2 C 23.4 C
15.05.2002 17:00 23.5 C 33 % 1024.2 hPa 0.0 l/m 1.4 km/h (1 Bft) O-SO 6.2 C 23.5 C
15.05.2002 18:00 23.2 C 37 % 1024.2 hPa 0.0 l/m 0.3 km/h (0 Bft) W 7.5 C 23.2 C
15.05.2002 19:00 22.3 C 39 % 1023.5 hPa 0.0 l/m 0.1 km/h (0 Bft) N 7.5 C 22.3 C
15.05.2002 20:00 19.3 C 51 % 1023.8 hPa 0.0 l/m 0.3 km/h (0 Bft) O-SO 8.7 C 19.3 C
15.05.2002 21:00 15.2 C 65 % 1024.2 hPa 0.0 l/m 1.7 km/h (1 Bft) O-SO 8.7 C 15.2 C
15.05.2002 22:00 13.1 C 77 % 1024.2 hPa 0.0 l/m 0.6 km/h (0 Bft) O-SO 9.2 C 13.1 C
15.05.2002 23:00 11.5 C 84 % 1024.2 hPa 0.0 l/m 0.0 km/h (0 Bft) N 8.9 C 11.5 C
16.05.2002 00:00 10.5 C 88 % 1024.2 hPa 0.0 l/m 0.0 km/h (0 Bft) N 8.5 C 10.5 C
16.05.2002 01:00 9.4 C 94 % 1024.2 hPa 0.0 l/m 0.0 km/h (0 Bft) N 8.4 C 9.4 C
16.05.2002 02:00 9.0 C 96 % 1024.2 hPa 0.0 l/m 0.0 km/h (0 Bft) N 8.4 C 9.0 C
16.05.2002 03:00 8.6 C 97 % 1024.2 hPa 0.0 l/m 0.0 km/h (0 Bft) N 8.2 C 8.6 C
16.05.2002 04:00 8.6 C 99 % 1024.2 hPa 0.0 l/m 0.0 km/h (0 Bft) N 8.4 C 8.6 C
16.05.2002 05:00 8.1 C 99 % 1024.2 hPa 0.0 l/m 0.0 km/h (0 Bft) N 8.0 C 8.1 C
16.05.2002 06:00 8.6 C 98 % 1024.2 hPa 0.0 l/m 0.0 km/h (0 Bft) N 8.3 C 8.6 C
16.05.2002 07:00 9.9 C 93 % 1024.2 hPa 0.0 l/m 0.0 km/h (0 Bft) N 8.9 C 9.9 C
16.05.2002 08:00 12.1 C 86 % 1024.2 hPa 0.0 l/m 1.3 km/h (1 Bft) O-SO 9.7 C 12.1 C
16.05.2002 09:00 14.7 C 72 % 1023.8 hPa 0.0 l/m 1.4 km/h (1 Bft) O-SO 9.7 C 14.7 C
16.05.2002 10:00 17.4 C 60 % 1023.2 hPa 0.0 l/m 2.8 km/h (1 Bft) O-SO 9.5 C 17.4 C
16.05.2002 11:00 20.0 C 51 % 1023.2 hPa 0.0 l/m 3.6 km/h (1 Bft) N 9.6 C 20.0 C
16.05.2002 12:00 22.5 C 45 % 1022.3 hPa 0.0 l/m 4.3 km/h (1 Bft) O-SO 10.0 C 22.5 C
16.05.2002 13:00 24.8 C 31 % 1021.4 hPa 0.0 l/m 6.0 km/h (2 Bft) O-SO 6.2 C 24.8 C
16.05.2002 14:00 26.4 C 29 % 1020.8 hPa 0.0 l/m 4.9 km/h (1 Bft) SO 6.7 C 26.4 C
16.05.2002 15:00 27.3 C 28 % 1019.9 hPa 0.0 l/m 3.0 km/h (1 Bft) O-SO 7.0 C 27.3 C
16.05.2002 16:00 27.2 C 28 % 1019.0 hPa 0.0 l/m 0.9 km/h (0 Bft) NW 7.0 C 27.2 C
16.05.2002 17:00 27.1 C 27 % 1018.4 hPa 0.0 l/m 2.1 km/h (1 Bft) W-NW 6.7 C 27.1 C
16.05.2002 18:00 26.6 C 31 % 1018.0 hPa 0.0 l/m 3.3 km/h (1 Bft) O-SO 8.1 C 26.6 C
16.05.2002 19:00 25.4 C 39 % 1017.4 hPa 0.0 l/m 1.9 km/h (1 Bft) O-SO 10.3 C 25.4 C
16.05.2002 20:00 22.6 C 48 % 1017.0 hPa 0.0 l/m 2.2 km/h (1 Bft) O-SO 11.1 C 22.6 C
16.05.2002 21:00 18.2 C 61 % 1017.7 hPa 0.0 l/m 4.3 km/h (1 Bft) O-SO 10.5 C 18.2 C
16.05.2002 22:00 15.2 C 73 % 1018.0 hPa 0.0 l/m 1.7 km/h (1 Bft) O-SO 10.5 C 15.2 C
16.05.2002 23:00 13.9 C 80 % 1018.0 hPa 0.0 l/m 2.1 km/h (1 Bft) O-SO 10.5 C 13.9 C
17.05.2002 00:00 12.8 C 84 % 1018.0 hPa 0.0 l/m 1.9 km/h (1 Bft) O-SO 10.2 C 12.8 C
17.05.2002 01:00 11.8 C 89 % 1018.0 hPa 0.0 l/m 0.7 km/h (0 Bft) O-SO 10.0 C 11.8 C
17.05.2002 02:00 11.3 C 93 % 1018.0 hPa 0.0 l/m 0.7 km/h (0 Bft) O-SO 10.1 C 11.3 C
17.05.2002 03:00 10.5 C 95 % 1017.4 hPa 0.0 l/m 0.3 km/h (0 Bft) O-SO 9.7 C 10.5 C
17.05.2002 04:00 9.9 C 97 % 1017.0 hPa 0.0 l/m 1.6 km/h (1 Bft) O-SO 9.5 C 9.9 C
17.05.2002 05:00 9.3 C 99 % 1017.0 hPa 0.0 l/m 0.1 km/h (0 Bft) O-SO 9.1 C 9.3 C
17.05.2002 06:00 9.1 C 99 % 1017.0 hPa 0.0 l/m 0.4 km/h (0 Bft) O-SO 9.0 C 9.1 C
17.05.2002 07:00 10.8 C 96 % 1017.0 hPa 0.0 l/m 0.0 km/h (0 Bft) N 10.2 C 10.8 C
17.05.2002 08:00 13.1 C 83 % 1016.7 hPa 0.0 l/m 0.0 km/h (0 Bft) N 10.2 C 13.1 C
17.05.2002 09:00 16.0 C 68 % 1015.9 hPa 0.0 l/m 0.3 km/h (0 Bft) W-NW 10.1 C 16.0 C
17.05.2002 10:00 19.5 C 58 % 1015.3 hPa 0.0 l/m 1.0 km/h (0 Bft) O-SO 11.1 C 19.5 C
17.05.2002 11:00 22.5 C 52 % 1014.3 hPa 0.0 l/m 1.5 km/h (1 Bft) O 12.1 C 22.5 C
17.05.2002 12:00 24.8 C 45 % 1013.6 hPa 0.0 l/m 3.4 km/h (1 Bft) W-NW 12.2 C 24.8 C
17.05.2002 13:00 26.7 C 41 % 1012.4 hPa 0.0 l/m 2.2 km/h (1 Bft) NW 12.2 C 26.7 C
17.05.2002 14:00 28.6 C 33 % 1011.8 hPa 0.0 l/m 4.1 km/h (1 Bft) O-SO 10.4 C 28.6 C
17.05.2002 15:00 29.7 C 29 % 1010.8 hPa 0.0 l/m 4.2 km/h (1 Bft) O-SO 9.6 C 29.7 C
17.05.2002 16:00 30.1 C 29 % 1010.1 hPa 0.0 l/m 3.3 km/h (1 Bft) W-NW 9.8 C 30.1 C
17.05.2002 17:00 29.8 C 29 % 1009.7 hPa 0.0 l/m 6.7 km/h (2 Bft) W-NW 9.6 C 29.8 C
17.05.2002 18:00 28.5 C 31 % 1009.7 hPa 0.0 l/m 1.3 km/h (1 Bft) W 9.7 C 28.5 C
17.05.2002 19:00 27.7 C 37 % 1009.7 hPa 0.0 l/m 2.6 km/h (1 Bft) SO 11.6 C 27.7 C
17.05.2002 20:00 23.9 C 48 % 1009.7 hPa 0.0 l/m 3.2 km/h (1 Bft) SO 12.2 C 23.9 C
17.05.2002 21:00 20.8 C 57 % 1010.1 hPa 0.0 l/m 2.6 km/h (1 Bft) O-SO 11.8 C 20.8 C
17.05.2002 22:00 20.1 C 61 % 1010.9 hPa 0.0 l/m 4.4 km/h (1 Bft) O-SO 12.2 C 20.1 C
17.05.2002 23:00 19.7 C 57 % 1011.8 hPa 0.0 l/m 6.3 km/h (2 Bft) O-SO 10.9 C 19.7 C
18.05.2002 00:00 19.1 C 57 % 1011.8 hPa 0.0 l/m 6.5 km/h (2 Bft) O-SO 10.2 C 19.1 C
18.05.2002 01:00 18.7 C 58 % 1012.4 hPa 0.0 l/m 5.5 km/h (1 Bft) O-SO 10.3 C 18.7 C
18.05.2002 02:00 16.7 C 66 % 1012.8 hPa 0.0 l/m 5.1 km/h (1 Bft) O-SO 10.3 C 16.7 C
18.05.2002 03:00 16.1 C 71 % 1012.8 hPa 0.0 l/m 2.5 km/h (1 Bft) O 10.7 C 16.1 C
18.05.2002 04:00 16.8 C 70 % 1012.9 hPa 0.0 l/m 8.2 km/h (2 Bft) NW 11.3 C 16.8 C
18.05.2002 05:00 16.8 C 70 % 1012.8 hPa 0.0 l/m 7.0 km/h (2 Bft) NW 11.3 C 16.8 C
18.05.2002 06:00 16.9 C 69 % 1013.5 hPa 0.0 l/m 5.3 km/h (1 Bft) NW 11.2 C 16.9 C
18.05.2002 07:00 17.3 C 65 % 1013.9 hPa 0.0 l/m 2.4 km/h (1 Bft) NW 10.6 C 17.3 C
18.05.2002 08:00 17.6 C 64 % 1013.9 hPa 0.0 l/m 7.8 km/h (2 Bft) NW 10.6 C 17.6 C
18.05.2002 09:00 18.5 C 63 % 1013.9 hPa 0.0 l/m 5.5 km/h (1 Bft) NW 11.2 C 18.5 C
18.05.2002 10:00 19.2 C 62 % 1013.9 hPa 0.0 l/m 6.5 km/h (2 Bft) NW 11.8 C 19.2 C
18.05.2002 11:00 20.2 C 60 % 1013.9 hPa 0.0 l/m 9.6 km/h (2 Bft) NW 12.1 C 20.2 C
18.05.2002 12:00 20.3 C 60 % 1013.9 hPa 0.0 l/m 14.3 km/h (3 Bft) NW 12.3 C 20.3 C
18.05.2002 13:00 19.6 C 62 % 1013.9 hPa 0.0 l/m 16.7 km/h (3 Bft) NW 12.2 C 19.6 C
18.05.2002 14:00 17.8 C 70 % 1014.8 hPa 0.0 l/m 25.8 km/h (4 Bft) NW 12.1 C 17.8 C
18.05.2002 15:00 16.7 C 77 % 1014.9 hPa 0.0 l/m 26.8 km/h (4 Bft) NW 12.5 C 16.7 C
18.05.2002 16:00 15.2 C 86 % 1015.5 hPa 0.0 l/m 34.5 km/h (5 Bft) NW 12.8 C 15.2 C
18.05.2002 17:00 13.1 C 95 % 1016.5 hPa 0.9 l/m 31.3 km/h (5 Bft) NW 12.3 C 13.1 C
18.05.2002 18:00 12.9 C 97 % 1017.2 hPa 0.3 l/m 21.1 km/h (4 Bft) NW 12.4 C 12.9 C
18.05.2002 19:00 13.0 C 94 % 1018.0 hPa 0.0 l/m 10.9 km/h (2 Bft) W-NW 12.0 C 13.0 C
18.05.2002 20:00 12.9 C 91 % 1019.1 hPa 0.0 l/m 11.9 km/h (2 Bft) W-NW 11.5 C 12.9 C
18.05.2002 21:00 12.7 C 88 % 1020.1 hPa 0.0 l/m 5.3 km/h (1 Bft) W-NW 10.8 C 12.7 C
18.05.2002 22:00 12.4 C 85 % 1021.0 hPa 0.0 l/m 2.7 km/h (1 Bft) W-NW 9.9 C 12.4 C
18.05.2002 23:00 12.1 C 86 % 1021.1 hPa 0.0 l/m 0.9 km/h (0 Bft) NW 9.9 C 12.1 C
19.05.2002 00:00 12.0 C 87 % 1021.1 hPa 0.0 l/m 1.4 km/h (1 Bft) NW 9.9 C 12.0 C
19.05.2002 01:00 11.8 C 88 % 1021.1 hPa 0.0 l/m 2.4 km/h (1 Bft) W 9.9 C 11.8 C
19.05.2002 02:00 11.4 C 87 % 1021.1 hPa 0.0 l/m 1.2 km/h (1 Bft) W-NW 9.4 C 11.4 C
19.05.2002 03:00 11.2 C 88 % 1021.1 hPa 0.0 l/m 0.7 km/h (0 Bft) NW 9.3 C 11.2 C
19.05.2002 04:00 11.2 C 87 % 1021.1 hPa 0.0 l/m 1.1 km/h (0 Bft) NW 9.1 C 11.2 C
19.05.2002 05:00 11.1 C 87 % 1021.1 hPa 0.0 l/m 0.2 km/h (0 Bft) NW 9.0 C 11.1 C
19.05.2002 06:00 11.0 C 88 % 1021.1 hPa 0.0 l/m 0.0 km/h (0 Bft) N 9.2 C 11.0 C
19.05.2002 07:00 11.4 C 88 % 1021.5 hPa 0.0 l/m 0.0 km/h (0 Bft) N 9.4 C 11.4 C
19.05.2002 08:00 11.7 C 86 % 1022.2 hPa 0.0 l/m 0.0 km/h (0 Bft) N 9.4 C 11.7 C
19.05.2002 09:00 12.2 C 86 % 1022.2 hPa 0.0 l/m 0.1 km/h (0 Bft) SO 9.9 C 12.2 C
19.05.2002 10:00 13.3 C 80 % 1022.2 hPa 0.0 l/m 1.5 km/h (1 Bft) O-SO 10.0 C 13.3 C
19.05.2002 11:00 13.9 C 78 % 1022.2 hPa 0.0 l/m 0.1 km/h (0 Bft) N 10.1 C 13.9 C
19.05.2002 12:00 13.9 C 77 % 1022.2 hPa 0.0 l/m 0.4 km/h (0 Bft) SW 9.9 C 13.9 C
19.05.2002 13:00 14.1 C 78 % 1021.6 hPa 0.0 l/m 0.4 km/h (0 Bft) W-NW 10.4 C 14.1 C
19.05.2002 14:00 14.2 C 74 % 1021.2 hPa 0.0 l/m 1.5 km/h (1 Bft) NW 9.6 C 14.2 C
19.05.2002 15:00 14.7 C 71 % 1021.1 hPa 0.0 l/m 0.1 km/h (0 Bft) N 9.5 C 14.7 C
19.05.2002 16:00 15.4 C 67 % 1020.7 hPa 0.0 l/m 0.1 km/h (0 Bft) N 9.2 C 15.4 C
19.05.2002 17:00 15.1 C 70 % 1021.1 hPa 0.0 l/m 0.0 km/h (0 Bft) N 9.5 C 15.1 C
19.05.2002 18:00 14.9 C 73 % 1021.0 hPa 0.0 l/m 0.0 km/h (0 Bft) N 10.1 C 14.9 C
19.05.2002 19:00 14.4 C 76 % 1021.1 hPa 0.0 l/m 0.2 km/h (0 Bft) W 10.3 C 14.4 C
19.05.2002 20:00 13.6 C 85 % 1021.1 hPa 0.0 l/m 0.1 km/h (0 Bft) N 11.0 C 13.6 C
19.05.2002 21:00 12.7 C 91 % 1020.6 hPa 0.0 l/m 1.7 km/h (1 Bft) O-SO 11.2 C 12.7 C
19.05.2002 22:00 12.4 C 92 % 1021.1 hPa 0.0 l/m 0.0 km/h (0 Bft) N 11.3 C 12.4 C
19.05.2002 23:00 12.1 C 95 % 1020.6 hPa 0.0 l/m 0.3 km/h (0 Bft) O-SO 11.3 C 12.1 C
Min-Datum _ 15.05.02 15.05.02 17.05.02 - 13.05.02 - 15.05.02 15.05.02
_ Min-Zeit 05:28 15:46 17:00 - 00:05 - 15:46 05:13
Minimum _ 4.8 C 25 % 1009.7 hPa - 0.0 km/h (0 Bft) - 2.1 C 3.3 C
Max-Datum _ 17.05.02 13.05.02 15.05.02 13.05.02 18.05.02 - 17.05.02 17.05.02
_ Max-Zeit 17:15 00:02 07:04 00:02 17:40 - 12:27 17:15
Maximum _ 30.6 C 100 % 1028.4 hPa 9.0 l/m 56.5 km/h
NW (7 Bft)
- 14.5 C 30.6 C
Durchschnitt _ 15.7 C 71 % 1019.1 hPa #15.0 l/m 5.4 km/h (1 Bft) NW 9.5 C 15.6 C

Durchschnitt Minimum Temp.14.8 C
Durchschnitt Maximum Temp.16.5 C
© Kaiko 2002